Time;durP1;ratioP1;P1;durP2;ratioP2;P2;SDS_P1;SDS_P2;PMS_P1;PMS_P2;Temp;Humidity;BMP_temperature;BMP_pressure;BME280_temperature;BME280_humidity;BME280_pressure;Samples;Min_cycle;Max_cycle;Signal;HPM_P1;HPM_P2
2022/01/30 00:00:39;;;;;;;0.40;0.30;;;;;;;;;;7392277;19;20010;-78
2022/01/30 00:03:05;;;;;;;0.30;0.28;;;;;;;;;;7391448;19;20007;-78
2022/01/30 00:05:30;;;;;;;0.43;0.08;;;;;;;;;;7393653;19;20009;-77
2022/01/30 00:07:56;;;;;;;0.70;0.40;;;;;;;;;;7393306;19;20304;-77
2022/01/30 00:10:22;;;;;;;2.22;1.00;;;;;;;;;;7392943;19;20542;-77
2022/01/30 00:12:54;;;;;;;1.05;0.80;;;;;;;;;;7391398;19;20066;-78
2022/01/30 00:15:34;;;;;;;2.13;1.08;;;;;;;;;;7392586;19;20002;-78
2022/01/30 00:18:10;;;;;;;1.15;0.38;;;;;;;;;;7392607;19;20350;-78
2022/01/30 00:20:36;;;;;;;1.13;0.40;;;;;;;;;;7392354;19;20042;-75
2022/01/30 00:23:21;;;;;;;0.82;0.55;;;;;;;;;;7391835;19;20446;-76
2022/01/30 00:25:52;;;;;;;0.30;0.20;;;;;;;;;;7393168;19;20030;-77
2022/01/30 00:28:19;;;;;;;0.30;0.30;;;;;;;;;;7394829;19;20494;-76
2022/01/30 00:30:45;;;;;;;0.60;0.30;;;;;;;;;;7391726;19;20486;-76
2022/01/30 00:33:11;;;;;;;0.52;0.40;;;;;;;;;;7390780;19;20051;-77
2022/01/30 00:35:36;;;;;;;1.02;0.70;;;;;;;;;;7394573;19;20066;-76
2022/01/30 00:38:03;;;;;;;0.20;0.20;;;;;;;;;;7395626;19;20292;-77
2022/01/30 00:40:28;;;;;;;1.83;0.40;;;;;;;;;;7392516;19;20393;-77
2022/01/30 00:42:54;;;;;;;2.08;1.00;;;;;;;;;;7393751;19;20038;-77
2022/01/30 00:45:19;;;;;;;1.88;0.32;;;;;;;;;;7392285;19;20019;-77
2022/01/30 00:47:45;;;;;;;0.60;0.20;;;;;;;;;;7391697;19;20007;-76
2022/01/30 00:50:10;;;;;;;0.20;0.20;;;;;;;;;;7391002;19;20115;-76
2022/01/30 00:52:35;;;;;;;0.10;0.10;;;;;;;;;;7390277;19;20007;-77
2022/01/30 00:55:01;;;;;;;0.20;0.13;;;;;;;;;;7393698;19;20081;-77
2022/01/30 00:57:26;;;;;;;0.45;0.30;;;;;;;;;;7393897;19;20126;-77
2022/01/30 00:59:51;;;;;;;0.17;0.10;;;;;;;;;;7390085;19;20351;-76
2022/01/30 01:02:17;;;;;;;0.30;0.25;;;;;;;;;;7391856;19;20007;-76
2022/01/30 01:04:46;;;;;;;0.38;0.38;;;;;;;;;;7390199;19;20241;-77
2022/01/30 01:07:18;;;;;;;0.40;0.20;;;;;;;;;;7390288;19;20002;-77
2022/01/30 01:09:51;;;;;;;1.13;0.30;;;;;;;;;;7391882;19;20387;-77
2022/01/30 01:23:30;;;;;;;0.80;0.47;;;;;;;;;;7392211;19;20078;-76
2022/01/30 01:25:58;;;;;;;0.60;0.30;;;;;;;;;;7391448;19;19994;-77
2022/01/30 01:28:24;;;;;;;0.90;0.45;;;;;;;;;;7389025;19;20018;-77
2022/01/30 01:30:49;;;;;;;0.57;0.45;;;;;;;;;;7390231;19;20006;-76
2022/01/30 01:33:15;;;;;;;0.52;0.38;;;;;;;;;;7390021;19;20074;-77
2022/01/30 01:35:41;;;;;;;0.55;0.30;;;;;;;;;;7390711;19;19995;-77
2022/01/30 01:38:11;;;;;;;0.20;0.20;;;;;;;;;;7390451;19;20002;-76
2022/01/30 01:40:41;;;;;;;0.30;0.30;;;;;;;;;;7390258;19;20006;-77
2022/01/30 01:43:06;;;;;;;0.55;0.47;;;;;;;;;;7387616;19;20548;-76
2022/01/30 01:45:38;;;;;;;0.93;0.40;;;;;;;;;;7388417;19;20025;-77
2022/01/30 01:48:11;;;;;;;0.57;0.38;;;;;;;;;;7392741;19;20007;-77
2022/01/30 01:50:39;;;;;;;2.20;1.23;;;;;;;;;;7391811;19;20034;-77
2022/01/30 01:53:10;;;;;;;0.25;0.25;;;;;;;;;;7390386;19;20017;-76
2022/01/30 01:55:37;;;;;;;0.73;0.50;;;;;;;;;;7391335;19;20014;-77
2022/01/30 01:58:04;;;;;;;0.43;0.43;;;;;;;;;;7391860;19;20144;-77
2022/01/30 02:00:30;;;;;;;2.15;0.13;;;;;;;;;;7390422;19;20015;-77
2022/01/30 02:02:55;;;;;;;0.65;0.40;;;;;;;;;;7391408;19;20014;-77
2022/01/30 02:05:26;;;;;;;0.70;0.32;;;;;;;;;;7391931;19;19999;-77
2022/01/30 02:10:30;;;;;;;0.30;0.30;;;;;;;;;;7388188;19;20009;-76
2022/01/30 02:13:09;;;;;;;0.40;0.30;;;;;;;;;;7388534;19;20010;-77
2022/01/30 02:23:55;;;;;;;0.20;0.20;;;;;;;;;;7387364;19;20007;-76
2022/01/30 02:24:07;;;;;;;0.40;0.32;;;;;;;;;;7389458;19;20051;-76
2022/01/30 02:26:44;;;;;;;0.32;0.30;;;;;;;;;;7388792;19;20332;-76
2022/01/30 02:29:11;;;;;;;0.25;0.25;;;;;;;;;;7388965;19;20014;-76
2022/01/30 02:31:39;;;;;;;0.57;0.47;;;;;;;;;;7387275;19;20002;-76
2022/01/30 02:34:04;;;;;;;0.95;0.40;;;;;;;;;;7389609;19;20317;-75
2022/01/30 02:36:29;;;;;;;0.22;0.20;;;;;;;;;;7390157;19;20465;-76
2022/01/30 02:38:58;;;;;;;0.57;0.20;;;;;;;;;;7388482;19;20070;-77
2022/01/30 02:41:23;;;;;;;0.40;0.30;;;;;;;;;;7390928;19;20010;-77
2022/01/30 02:44:04;;;;;;;0.93;0.32;;;;;;;;;;7389420;19;20027;-77
2022/01/30 02:46:33;;;;;;;0.30;0.22;;;;;;;;;;7393310;19;20011;-77
2022/01/30 02:49:11;;;;;;;1.27;0.60;;;;;;;;;;7390019;19;20041;-75
2022/01/30 02:51:46;;;;;;;0.20;0.20;;;;;;;;;;7391948;19;20527;-77
2022/01/30 02:54:11;;;;;;;0.20;0.20;;;;;;;;;;7390720;19;20002;-76
2022/01/30 02:56:37;;;;;;;0.32;0.20;;;;;;;;;;7389660;19;20305;-76
2022/01/30 02:59:03;;;;;;;0.77;0.40;;;;;;;;;;7386127;19;20010;-76
2022/01/30 03:01:28;;;;;;;0.20;0.20;;;;;;;;;;7388020;19;20011;-77
2022/01/30 03:03:53;;;;;;;0.40;0.10;;;;;;;;;;7386144;19;20002;-76
2022/01/30 03:06:18;;;;;;;0.25;0.20;;;;;;;;;;7387135;19;20030;-77
2022/01/30 03:08:44;;;;;;;1.65;0.20;;;;;;;;;;7386805;19;19995;-77
2022/01/30 03:11:09;;;;;;;0.70;0.20;;;;;;;;;;7386595;19;20007;-76
2022/01/30 03:13:34;;;;;;;0.73;0.22;;;;;;;;;;7388913;19;20011;-76
2022/01/30 03:16:03;;;;;;;0.20;0.20;;;;;;;;;;7387711;19;20003;-76
2022/01/30 03:18:29;;;;;;;0.85;0.30;;;;;;;;;;7385326;19;19999;-76
2022/01/30 03:20:54;;;;;;;0.30;0.22;;;;;;;;;;7388340;19;20359;-77
2022/01/30 03:23:19;;;;;;;0.30;0.30;;;;;;;;;;7386494;19;20014;-76
2022/01/30 03:25:45;;;;;;;0.43;0.25;;;;;;;;;;7387375;19;20018;-76
2022/01/30 03:28:10;;;;;;;4.40;0.50;;;;;;;;;;7386165;19;20562;-76
2022/01/30 03:30:37;;;;;;;0.10;0.10;;;;;;;;;;7392469;19;20048;-76
2022/01/30 03:33:02;;;;;;;0.93;0.20;;;;;;;;;;7391482;19;19999;-76
2022/01/30 03:35:28;;;;;;;1.15;0.20;;;;;;;;;;7393071;19;20135;-77
2022/01/30 03:37:53;;;;;;;0.20;0.17;;;;;;;;;;7392810;19;20449;-76
2022/01/30 03:40:19;;;;;;;0.38;0.30;;;;;;;;;;7392852;19;20066;-75
2022/01/30 03:42:44;;;;;;;0.30;0.30;;;;;;;;;;7392018;19;20042;-76
2022/01/30 03:45:09;;;;;;;0.38;0.32;;;;;;;;;;7391127;19;20070;-77
2022/01/30 03:47:35;;;;;;;0.30;0.30;;;;;;;;;;7398422;19;20044;-76
2022/01/30 03:50:00;;;;;;;0.50;0.28;;;;;;;;;;7406146;19;20319;-77
2022/01/30 03:52:25;;;;;;;1.55;0.47;;;;;;;;;;7395214;19;20034;-77
2022/01/30 03:54:51;;;;;;;0.20;0.20;;;;;;;;;;7395307;19;20014;-76
2022/01/30 03:57:16;;;;;;;1.17;0.30;;;;;;;;;;7394234;19;19998;-77
2022/01/30 03:59:41;;;;;;;0.38;0.30;;;;;;;;;;7396731;19;20066;-78
2022/01/30 04:02:07;;;;;;;0.30;0.30;;;;;;;;;;7396087;19;20027;-78
2022/01/30 04:04:33;;;;;;;0.73;0.30;;;;;;;;;;7396864;19;20322;-79
2022/01/30 04:06:59;;;;;;;2.38;0.75;;;;;;;;;;7399623;19;20007;-79
2022/01/30 04:09:26;;;;;;;0.40;0.20;;;;;;;;;;7397704;19;20014;-78
2022/01/30 04:11:52;;;;;;;0.75;0.70;;;;;;;;;;7399856;19;20028;-77
2022/01/30 04:14:17;;;;;;;0.88;0.22;;;;;;;;;;7396816;19;20007;-78
2022/01/30 04:16:44;;;;;;;0.85;0.30;;;;;;;;;;7399168;19;20477;-79
2022/01/30 04:19:13;;;;;;;0.55;0.30;;;;;;;;;;7399683;19;20007;-78
2022/01/30 04:21:39;;;;;;;0.60;0.40;;;;;;;;;;7395917;19;20046;-78
2022/01/30 04:24:05;;;;;;;0.20;0.13;;;;;;;;;;7394662;19;20003;-78
2022/01/30 04:26:30;;;;;;;0.32;0.30;;;;;;;;;;7396771;19;19998;-78
2022/01/30 04:28:56;;;;;;;0.57;0.25;;;;;;;;;;7394218;19;20002;-78
2022/01/30 04:31:21;;;;;;;0.20;0.20;;;;;;;;;;7394822;19;20015;-77
2022/01/30 04:33:47;;;;;;;0.65;0.40;;;;;;;;;;7395218;19;20014;-78
2022/01/30 04:36:19;;;;;;;0.95;0.17;;;;;;;;;;7394069;19;20006;-77
2022/01/30 04:41:32;;;;;;;0.20;0.13;;;;;;;;;;7393842;19;20014;-76
2022/01/30 05:02:48;;;;;;;1.65;0.32;;;;;;;;;;7399871;19;20002;-77
2022/01/30 05:05:38;;;;;;;0.70;0.30;;;;;;;;;;7405302;19;20003;-78
2022/01/30 05:08:07;;;;;;;0.10;0.10;;;;;;;;;;7406138;19;20010;-77
2022/01/30 05:10:32;;;;;;;0.10;0.10;;;;;;;;;;7404366;19;20002;-77
2022/01/30 05:13:00;;;;;;;0.10;0.10;;;;;;;;;;7399371;19;20018;-77
2022/01/30 05:15:27;;;;;;;0.10;0.10;;;;;;;;;;7394904;19;20003;-77
2022/01/30 05:17:53;;;;;;;0.10;0.10;;;;;;;;;;7396394;19;20073;-77
2022/01/30 05:20:19;;;;;;;0.68;0.22;;;;;;;;;;7394982;19;20027;-76
2022/01/30 05:22:45;;;;;;;0.55;0.20;;;;;;;;;;7392293;19;20006;-77
2022/01/30 05:25:10;;;;;;;1.38;0.55;;;;;;;;;;7391681;19;20126;-77
2022/01/30 05:27:36;;;;;;;0.82;0.30;;;;;;;;;;7395431;19;20134;-76
2022/01/30 05:30:02;;;;;;;0.43;0.20;;;;;;;;;;7390978;19;20037;-76
2022/01/30 05:32:28;;;;;;;0.80;0.30;;;;;;;;;;7389582;19;20002;-76
2022/01/30 05:34:55;;;;;;;1.00;0.35;;;;;;;;;;7388427;19;20024;-76
2022/01/30 05:37:22;;;;;;;1.02;0.43;;;;;;;;;;7389750;19;20014;-76
2022/01/30 05:39:47;;;;;;;0.68;0.22;;;;;;;;;;7388838;19;20100;-76
2022/01/30 05:42:13;;;;;;;0.30;0.30;;;;;;;;;;7394109;19;20010;-76
2022/01/30 05:44:58;;;;;;;0.45;0.20;;;;;;;;;;7393809;19;20016;-76
2022/01/30 05:47:35;;;;;;;0.10;0.10;;;;;;;;;;7394387;19;20003;-77
2022/01/30 05:50:01;;;;;;;0.20;0.10;;;;;;;;;;7393158;19;20022;-77
2022/01/30 05:52:26;;;;;;;0.10;0.10;;;;;;;;;;7393999;19;20128;-77
2022/01/30 05:54:51;;;;;;;0.20;0.20;;;;;;;;;;7391242;19;20002;-77
2022/01/30 05:57:17;;;;;;;0.20;0.20;;;;;;;;;;7394555;19;20033;-77
2022/01/30 05:59:42;;;;;;;0.10;0.10;;;;;;;;;;7388558;19;20127;-77
2022/01/30 06:02:07;;;;;;;0.30;0.10;;;;;;;;;;7390243;19;20616;-77
2022/01/30 06:04:33;;;;;;;0.25;0.20;;;;;;;;;;7394373;19;20003;-77
2022/01/30 06:07:00;;;;;;;0.15;0.15;;;;;;;;;;7393464;19;20438;-77
2022/01/30 06:09:25;;;;;;;0.82;0.30;;;;;;;;;;7392489;19;20015;-77
2022/01/30 06:11:51;;;;;;;0.57;0.30;;;;;;;;;;7392078;19;20339;-77
2022/01/30 06:14:17;;;;;;;0.50;0.40;;;;;;;;;;7393593;19;20006;-76
2022/01/30 06:16:43;;;;;;;0.30;0.28;;;;;;;;;;7395119;19;20070;-77
2022/01/30 06:19:08;;;;;;;1.50;0.50;;;;;;;;;;7389286;19;20434;-76
2022/01/30 06:21:33;;;;;;;0.40;0.20;;;;;;;;;;7390639;19;20070;-76
2022/01/30 06:23:59;;;;;;;2.33;0.77;;;;;;;;;;7389012;19;20422;-76
2022/01/30 06:26:25;;;;;;;1.40;0.50;;;;;;;;;;7391234;19;20014;-77
2022/01/30 06:28:50;;;;;;;0.45;0.32;;;;;;;;;;7390438;19;20006;-76
2022/01/30 06:31:15;;;;;;;3.03;0.50;;;;;;;;;;7385781;19;20133;-76
2022/01/30 06:33:41;;;;;;;1.33;0.20;;;;;;;;;;7388724;19;20026;-76
2022/01/30 06:36:06;;;;;;;1.23;0.40;;;;;;;;;;7389204;19;20070;-77
2022/01/30 06:38:31;;;;;;;0.52;0.30;;;;;;;;;;7389479;19;20006;-77
2022/01/30 06:40:57;;;;;;;1.08;0.15;;;;;;;;;;7388147;19;20554;-76
2022/01/30 06:43:22;;;;;;;1.85;0.40;;;;;;;;;;7388774;19;20014;-77
2022/01/30 06:45:48;;;;;;;0.57;0.20;;;;;;;;;;7385453;19;20010;-77
2022/01/30 06:48:20;;;;;;;0.65;0.13;;;;;;;;;;7388333;19;20070;-76
2022/01/30 06:50:45;;;;;;;1.15;0.20;;;;;;;;;;7386906;19;20015;-77
2022/01/30 06:53:12;;;;;;;0.10;0.10;;;;;;;;;;7386195;19;20023;-77
2022/01/30 06:55:42;;;;;;;0.52;0.30;;;;;;;;;;7388643;19;20010;-76
2022/01/30 06:58:07;;;;;;;1.42;0.90;;;;;;;;;;7388329;19;20017;-77
2022/01/30 07:00:33;;;;;;;1.85;0.68;;;;;;;;;;7386534;19;20010;-76
2022/01/30 07:03:00;;;;;;;0.40;0.40;;;;;;;;;;7388374;19;20006;-78
2022/01/30 07:05:25;;;;;;;0.20;0.20;;;;;;;;;;7402448;19;20074;-78
2022/01/30 07:07:50;;;;;;;0.55;0.28;;;;;;;;;;7394985;19;20019;-76
2022/01/30 07:10:16;;;;;;;1.15;0.45;;;;;;;;;;7394335;19;20062;-77
2022/01/30 07:12:41;;;;;;;1.23;0.32;;;;;;;;;;7391615;19;20019;-77
2022/01/30 07:15:07;;;;;;;1.60;0.30;;;;;;;;;;7393097;19;20007;-77
2022/01/30 07:17:32;;;;;;;0.55;0.40;;;;;;;;;;7395505;19;20093;-77
2022/01/30 07:19:57;;;;;;;0.88;0.50;;;;;;;;;;7392809;19;20023;-77
2022/01/30 07:22:22;;;;;;;1.35;0.47;;;;;;;;;;7392202;19;20403;-77
2022/01/30 07:24:48;;;;;;;1.20;0.50;;;;;;;;;;7391939;19;20090;-76
2022/01/30 07:27:13;;;;;;;2.08;0.88;;;;;;;;;;7395219;19;20014;-77
2022/01/30 07:29:38;;;;;;;2.75;1.00;;;;;;;;;;7392522;19;20131;-76
2022/01/30 07:32:04;;;;;;;2.33;1.00;;;;;;;;;;7394171;19;20013;-76
2022/01/30 07:34:29;;;;;;;3.80;1.00;;;;;;;;;;7395088;19;20438;-76
2022/01/30 07:36:57;;;;;;;2.70;0.88;;;;;;;;;;7394825;19;20046;-75
2022/01/30 07:39:27;;;;;;;1.38;0.60;;;;;;;;;;7393530;19;20010;-77
2022/01/30 07:41:52;;;;;;;1.27;0.57;;;;;;;;;;7393556;19;20011;-76
2022/01/30 07:44:18;;;;;;;5.20;1.42;;;;;;;;;;7391888;19;20014;-77
2022/01/30 07:46:43;;;;;;;2.15;0.75;;;;;;;;;;7394350;19;20018;-76
2022/01/30 07:49:09;;;;;;;1.95;0.68;;;;;;;;;;7394542;19;20208;-76
2022/01/30 07:51:34;;;;;;;3.65;0.82;;;;;;;;;;7394127;19;20070;-75
2022/01/30 07:53:59;;;;;;;2.08;0.80;;;;;;;;;;7393564;19;20027;-75
2022/01/30 07:56:25;;;;;;;2.22;0.52;;;;;;;;;;7393962;19;20308;-74
2022/01/30 07:58:50;;;;;;;4.15;1.15;;;;;;;;;;7391903;19;20019;-74
2022/01/30 08:01:15;;;;;;;3.92;1.02;;;;;;;;;;7393400;19;20021;-75
2022/01/30 08:03:41;;;;;;;5.78;1.15;;;;;;;;;;7392638;19;20022;-75
2022/01/30 08:06:06;;;;;;;3.78;1.00;;;;;;;;;;7393166;19;20007;-75
2022/01/30 08:08:31;;;;;;;0.98;0.47;;;;;;;;;;7391894;19;20646;-77
2022/01/30 08:10:56;;;;;;;4.22;0.40;;;;;;;;;;7394057;19;20020;-77
2022/01/30 08:13:22;;;;;;;2.25;0.68;;;;;;;;;;7391804;19;20446;-78
2022/01/30 08:15:47;;;;;;;2.05;0.68;;;;;;;;;;7392449;19;19995;-78
2022/01/30 08:18:12;;;;;;;6.00;2.03;;;;;;;;;;7394186;19;20837;-77
2022/01/30 08:20:38;;;;;;;4.95;1.40;;;;;;;;;;7394296;19;20039;-78
2022/01/30 08:23:15;;;;;;;3.60;1.35;;;;;;;;;;7394329;19;20078;-78
2022/01/30 08:25:40;;;;;;;6.15;1.20;;;;;;;;;;7396901;19;20058;-78
2022/01/30 08:28:06;;;;;;;9.32;1.90;;;;;;;;;;7398371;19;20322;-78
2022/01/30 08:30:32;;;;;;;8.75;1.73;;;;;;;;;;7407458;19;20022;-79
2022/01/30 08:33:00;;;;;;;8.98;1.77;;;;;;;;;;7371099;19;20082;-79
2022/01/30 08:35:26;;;;;;;10.23;1.48;;;;;;;;;;7398457;19;20014;-78
2022/01/30 08:37:52;;;;;;;7.97;1.92;;;;;;;;;;7396378;19;20080;-78
2022/01/30 08:40:19;;;;;;;7.85;1.63;;;;;;;;;;7393306;19;20002;-78
2022/01/30 08:42:46;;;;;;;6.65;2.20;;;;;;;;;;7392994;19;20058;-78
2022/01/30 08:45:13;;;;;;;7.20;1.63;;;;;;;;;;7390794;19;20190;-78
2022/01/30 08:47:42;;;;;;;9.10;1.75;;;;;;;;;;7393527;19;20117;-78
2022/01/30 08:50:08;;;;;;;9.35;1.80;;;;;;;;;;7392512;19;20003;-79
2022/01/30 08:52:34;;;;;;;7.90;1.80;;;;;;;;;;7397063;19;20010;-80
2022/01/30 08:55:00;;;;;;;5.13;1.65;;;;;;;;;;7388964;19;20002;-78
2022/01/30 08:57:25;;;;;;;5.60;1.85;;;;;;;;;;7383251;19;20450;-78
2022/01/30 08:59:51;;;;;;;8.60;1.40;;;;;;;;;;7383246;19;20802;-77
2022/01/30 09:02:18;;;;;;;9.48;1.80;;;;;;;;;;7387584;19;20083;-78
2022/01/30 09:04:43;;;;;;;4.97;1.52;;;;;;;;;;7383191;19;20015;-77
2022/01/30 09:07:08;;;;;;;6.63;1.60;;;;;;;;;;7384716;19;20446;-77
2022/01/30 09:09:34;;;;;;;5.55;1.52;;;;;;;;;;7387385;19;20023;-77
2022/01/30 09:12:00;;;;;;;8.07;2.10;;;;;;;;;;7389334;19;20451;-77
2022/01/30 09:14:26;;;;;;;10.52;1.60;;;;;;;;;;7387810;19;19998;-77
2022/01/30 09:16:51;;;;;;;7.25;2.17;;;;;;;;;;7389879;19;20387;-77
2022/01/30 09:19:16;;;;;;;12.25;3.58;;;;;;;;;;7388507;19;20034;-77
2022/01/30 09:21:42;;;;;;;7.60;1.73;;;;;;;;;;7387856;19;20457;-77
2022/01/30 09:24:07;;;;;;;10.07;1.70;;;;;;;;;;7391506;19;19998;-77
2022/01/30 09:26:32;;;;;;;8.32;1.73;;;;;;;;;;7387097;19;20746;-78
2022/01/30 09:28:58;;;;;;;9.80;2.10;;;;;;;;;;7387079;19;19994;-78
2022/01/30 09:31:23;;;;;;;6.05;2.72;;;;;;;;;;7388020;19;19991;-78
2022/01/30 09:33:48;;;;;;;5.47;1.67;;;;;;;;;;7390936;19;20034;-77
2022/01/30 09:36:14;;;;;;;4.57;1.52;;;;;;;;;;7391820;19;20006;-77
2022/01/30 09:38:40;;;;;;;10.23;2.15;;;;;;;;;;7389327;19;20002;-77
2022/01/30 09:41:08;;;;;;;5.57;1.73;;;;;;;;;;7388131;19;20028;-77
2022/01/30 09:43:33;;;;;;;4.45;1.30;;;;;;;;;;7388213;19;20407;-77
2022/01/30 09:46:00;;;;;;;11.30;1.98;;;;;;;;;;7390572;19;20021;-77
2022/01/30 09:48:25;;;;;;;9.35;1.85;;;;;;;;;;7390647;19;20465;-77
2022/01/30 09:50:51;;;;;;;7.03;1.92;;;;;;;;;;7389611;19;20011;-77
2022/01/30 09:53:17;;;;;;;8.05;2.05;;;;;;;;;;7386136;19;20296;-77
2022/01/30 09:55:42;;;;;;;10.20;2.38;;;;;;;;;;7390563;19;20018;-77
2022/01/30 09:58:08;;;;;;;9.80;2.60;;;;;;;;;;7391076;19;20507;-77
2022/01/30 10:00:34;;;;;;;7.65;1.60;;;;;;;;;;7386917;19;19990;-77
2022/01/30 10:02:59;;;;;;;7.43;1.70;;;;;;;;;;7388397;19;20474;-77
2022/01/30 10:05:24;;;;;;;6.10;1.70;;;;;;;;;;7390155;19;20023;-77
2022/01/30 10:07:52;;;;;;;7.05;1.60;;;;;;;;;;7387964;19;19999;-77
2022/01/30 10:10:23;;;;;;;6.20;1.83;;;;;;;;;;7391451;19;20014;-77
2022/01/30 10:13:11;;;;;;;10.50;1.52;;;;;;;;;;7386954;19;19999;-77
2022/01/30 10:15:52;;;;;;;8.63;1.30;;;;;;;;;;7386529;19;20002;-77
2022/01/30 10:18:19;;;;;;;7.15;1.35;;;;;;;;;;7389792;19;20006;-77
2022/01/30 10:20:45;;;;;;;12.43;1.60;;;;;;;;;;7387066;19;20041;-77
2022/01/30 10:23:11;;;;;;;12.25;2.10;;;;;;;;;;7385452;19;19999;-77
2022/01/30 10:25:51;;;;;;;9.43;1.80;;;;;;;;;;7387722;19;19991;-77
2022/01/30 10:28:21;;;;;;;9.95;2.00;;;;;;;;;;7389430;19;20014;-77
2022/01/30 10:30:52;;;;;;;7.35;1.88;;;;;;;;;;7384998;19;20038;-77
2022/01/30 10:33:19;;;;;;;16.55;1.98;;;;;;;;;;7388627;19;20036;-77
2022/01/30 10:36:10;;;;;;;5.15;1.95;;;;;;;;;;7389354;19;20124;-78
2022/01/30 10:38:40;;;;;;;12.10;1.88;;;;;;;;;;7391837;19;20030;-77
2022/01/30 10:41:14;;;;;;;12.02;2.10;;;;;;;;;;7394832;19;20011;-79
2022/01/30 10:43:49;;;;;;;6.80;1.63;;;;;;;;;;7392691;19;20082;-76
2022/01/30 10:46:23;;;;;;;8.90;1.33;;;;;;;;;;7395367;19;20035;-76
2022/01/30 10:48:58;;;;;;;8.23;1.48;;;;;;;;;;7396706;19;20009;-76
2022/01/30 10:51:25;;;;;;;9.02;1.50;;;;;;;;;;7393147;19;20015;-76
2022/01/30 10:53:51;;;;;;;6.93;1.77;;;;;;;;;;7392946;19;20007;-76
2022/01/30 10:56:24;;;;;;;7.00;1.70;;;;;;;;;;7393064;19;20038;-76
2022/01/30 10:59:12;;;;;;;9.18;1.60;;;;;;;;;;7392654;19;20014;-76
2022/01/30 11:01:43;;;;;;;11.32;2.17;;;;;;;;;;7393961;19;20018;-76
2022/01/30 11:04:24;;;;;;;8.60;2.70;;;;;;;;;;7395387;19;19994;-75
2022/01/30 11:06:51;;;;;;;12.73;4.72;;;;;;;;;;7392898;19;19991;-76
2022/01/30 11:09:22;;;;;;;8.52;1.83;;;;;;;;;;7393548;19;20489;-75
2022/01/30 11:12:04;;;;;;;8.80;1.88;;;;;;;;;;7393883;19;20010;-76
2022/01/30 11:14:40;;;;;;;11.98;2.88;;;;;;;;;;7390911;19;19999;-77
2022/01/30 11:17:08;;;;;;;10.10;1.45;;;;;;;;;;7394083;19;20600;-76
2022/01/30 11:19:42;;;;;;;9.90;1.83;;;;;;;;;;7391633;19;20054;-75
2022/01/30 11:22:18;;;;;;;6.78;1.50;;;;;;;;;;7388633;19;20341;-76
2022/01/30 11:24:53;;;;;;;7.25;1.67;;;;;;;;;;7394256;19;20036;-75
2022/01/30 11:27:20;;;;;;;;;;;;;;;;;;7396297;19;20011;-76
2022/01/30 11:29:46;;;;;;;9.00;2.00;;;;;;;;;;7391842;19;19951;-75
2022/01/30 11:32:12;;;;;;;4.97;1.30;;;;;;;;;;7393952;19;20454;-76
2022/01/30 11:34:40;;;;;;;2.97;1.02;;;;;;;;;;7393621;19;19998;-76
2022/01/30 11:37:08;;;;;;;8.20;1.48;;;;;;;;;;7394591;19;20118;-75
2022/01/30 11:39:34;;;;;;;4.40;1.75;;;;;;;;;;7393803;19;20006;-75
2022/01/30 11:42:13;;;;;;;6.38;1.85;;;;;;;;;;7391193;19;20017;-75
2022/01/30 11:44:47;;;;;;;7.88;1.50;;;;;;;;;;7389007;19;19999;-76
2022/01/30 11:47:12;;;;;;;10.90;1.63;;;;;;;;;;7395104;19;20006;-76
2022/01/30 11:49:48;;;;;;;5.45;1.00;;;;;;;;;;7391138;19;20027;-76
2022/01/30 11:52:15;;;;;;;6.95;1.38;;;;;;;;;;7394434;19;20083;-76
2022/01/30 11:54:46;;;;;;;7.05;1.25;;;;;;;;;;7390753;19;19999;-76
2022/01/30 11:57:20;;;;;;;7.53;1.48;;;;;;;;;;7394350;19;20010;-76
2022/01/30 11:59:56;;;;;;;10.57;1.63;;;;;;;;;;7391388;19;20027;-76
2022/01/30 12:02:25;;;;;;;3.85;1.10;;;;;;;;;;7390253;19;20006;-76
2022/01/30 12:04:59;;;;;;;4.00;1.20;;;;;;;;;;7388783;19;20015;-76
2022/01/30 12:07:33;;;;;;;5.40;0.98;;;;;;;;;;7391333;19;20019;-76
2022/01/30 12:10:20;;;;;;;7.80;1.75;;;;;;;;;;7391774;19;20006;-76
2022/01/30 12:12:49;;;;;;;6.32;1.13;;;;;;;;;;7391828;19;20026;-76
2022/01/30 12:15:37;;;;;;;5.40;1.40;;;;;;;;;;7392811;19;20447;-76
2022/01/30 12:18:04;;;;;;;7.07;1.30;;;;;;;;;;7393118;19;20456;-76
2022/01/30 12:20:32;;;;;;;8.25;1.40;;;;;;;;;;7394105;19;20019;-75
2022/01/30 12:22:58;;;;;;;6.32;1.67;;;;;;;;;;7388368;19;20009;-77
2022/01/30 12:25:34;;;;;;;8.75;1.70;;;;;;;;;;7387593;19;20361;-76
2022/01/30 12:28:02;;;;;;;6.43;1.40;;;;;;;;;;7392561;19;20018;-76
2022/01/30 12:30:57;;;;;;;10.38;1.55;;;;;;;;;;7392652;19;20034;-76
2022/01/30 12:33:34;;;;;;;8.82;1.73;;;;;;;;;;7388638;19;20390;-77
2022/01/30 12:36:02;;;;;;;5.60;1.40;;;;;;;;;;7393026;19;20418;-76
2022/01/30 12:38:34;;;;;;;8.90;1.67;;;;;;;;;;7393482;19;20430;-77
2022/01/30 12:41:01;;;;;;;10.70;1.15;;;;;;;;;;7391885;19;20031;-76
2022/01/30 12:43:31;;;;;;;6.22;1.50;;;;;;;;;;7389137;19;20408;-76
2022/01/30 12:46:09;;;;;;;11.90;2.70;;;;;;;;;;7391187;19;20006;-76
2022/01/30 12:48:35;;;;;;;7.47;2.63;;;;;;;;;;7391551;19;20010;-77
2022/01/30 12:51:05;;;;;;;7.60;1.88;;;;;;;;;;7391286;19;20092;-76
2022/01/30 12:53:33;;;;;;;8.05;1.70;;;;;;;;;;7389525;19;20100;-76
2022/01/30 12:55:59;;;;;;;7.50;1.60;;;;;;;;;;7389033;19;20450;-76
2022/01/30 12:58:32;;;;;;;7.32;1.75;;;;;;;;;;7389458;19;19999;-76
2022/01/30 13:01:09;;;;;;;7.00;1.65;;;;;;;;;;7388234;19;20035;-76
2022/01/30 13:03:34;;;;;;;10.32;1.58;;;;;;;;;;7392486;19;20017;-76
2022/01/30 13:06:00;;;;;;;8.13;1.63;;;;;;;;;;7392386;19;20489;-76
2022/01/30 13:08:47;;;;;;;7.93;1.40;;;;;;;;;;7388437;19;20466;-76
2022/01/30 13:11:31;;;;;;;7.53;2.13;;;;;;;;;;7391705;19;20005;-76
2022/01/30 13:13:59;;;;;;;6.55;1.30;;;;;;;;;;7391489;19;20446;-75
2022/01/30 13:16:30;;;;;;;9.10;1.83;;;;;;;;;;7389985;19;20529;-75
2022/01/30 13:18:55;;;;;;;5.75;1.42;;;;;;;;;;7388145;19;20070;-78
2022/01/30 13:21:31;;;;;;;7.80;1.50;;;;;;;;;;7417187;19;20380;-76
2022/01/30 13:23:59;;;;;;;7.80;1.92;;;;;;;;;;7419515;19;20366;-73
2022/01/30 13:26:58;;;;;;;10.95;2.63;;;;;;;;;;7419651;19;20444;-72
2022/01/30 13:29:25;;;;;;;9.00;1.50;;;;;;;;;;7415964;19;20073;-72
2022/01/30 13:31:54;;;;;;;5.20;1.33;;;;;;;;;;7418375;19;20344;-73
2022/01/30 13:34:28;;;;;;;7.32;1.45;;;;;;;;;;7419520;19;20378;-73
2022/01/30 13:37:05;;;;;;;8.27;2.05;;;;;;;;;;7419093;19;20463;-72
2022/01/30 13:39:40;;;;;;;7.93;1.55;;;;;;;;;;7418720;19;20459;-72
2022/01/30 13:44:52;;;;;;;8.07;1.60;;;;;;;;;;7421338;19;20468;-74
2022/01/30 13:47:21;;;;;;;10.55;2.30;;;;;;;;;;7420707;19;20472;-74
2022/01/30 13:49:51;;;;;;;9.95;1.80;;;;;;;;;;7420145;19;20022;-74
2022/01/30 13:52:18;;;;;;;10.57;2.17;;;;;;;;;;7420472;19;20006;-77
2022/01/30 13:55:00;;;;;;;9.13;1.90;;;;;;;;;;7418267;19;20019;-72
2022/01/30 13:57:34;;;;;;;8.80;2.22;;;;;;;;;;7420447;19;20032;-75
2022/01/30 14:00:07;;;;;;;7.32;2.40;;;;;;;;;;7415541;19;20010;-72
2022/01/30 14:02:32;;;;;;;6.32;1.48;;;;;;;;;;7419366;19;20149;-74
2022/01/30 14:05:25;;;;;;;8.50;1.98;;;;;;;;;;7421117;19;20031;-71
2022/01/30 14:07:54;;;;;;;7.88;1.92;;;;;;;;;;7420422;19;20282;-71
2022/01/30 14:10:22;;;;;;;8.68;1.63;;;;;;;;;;7417496;19;20006;-71
2022/01/30 14:12:52;;;;;;;9.15;1.75;;;;;;;;;;7417949;19;20015;-73
2022/01/30 14:15:21;;;;;;;8.43;1.55;;;;;;;;;;7417587;19;20021;-75
2022/01/30 14:18:05;;;;;;;7.25;1.50;;;;;;;;;;7419865;19;20046;-71
2022/01/30 14:20:31;;;;;;;9.38;1.95;;;;;;;;;;7415577;19;19994;-72
2022/01/30 14:23:12;;;;;;;8.27;1.95;;;;;;;;;;7417691;19;20336;-71
2022/01/30 14:25:38;;;;;;;6.95;1.67;;;;;;;;;;7417588;19;20011;-72
2022/01/30 14:28:21;;;;;;;10.02;1.65;;;;;;;;;;7417014;19;20002;-73
2022/01/30 14:30:46;;;;;;;9.88;2.03;;;;;;;;;;7411243;19;20002;-74
2022/01/30 14:33:12;;;;;;;6.28;1.65;;;;;;;;;;7392036;19;20023;-75
2022/01/30 14:35:37;;;;;;;7.40;1.27;;;;;;;;;;7391613;19;20002;-70
2022/01/30 14:38:07;;;;;;;7.15;1.42;;;;;;;;;;7392387;19;20399;-72
2022/01/30 14:40:37;;;;;;;11.48;2.28;;;;;;;;;;7389233;19;20373;-74
2022/01/30 14:43:09;;;;;;;7.47;1.67;;;;;;;;;;7389049;19;20003;-75
2022/01/30 14:45:36;;;;;;;11.13;1.67;;;;;;;;;;7388761;19;20013;-73
2022/01/30 14:48:01;;;;;;;6.55;1.33;;;;;;;;;;7392386;19;20002;-74
2022/01/30 14:50:27;;;;;;;7.10;1.60;;;;;;;;;;7385829;19;20321;-72
2022/01/30 14:52:54;;;;;;;5.90;1.10;;;;;;;;;;7389037;19;19995;-72
2022/01/30 14:55:21;;;;;;;6.93;1.85;;;;;;;;;;7387912;19;20019;-70
2022/01/30 14:57:46;;;;;;;6.05;1.20;;;;;;;;;;7393430;19;20555;-72
2022/01/30 15:00:16;;;;;;;5.18;1.63;;;;;;;;;;7386023;19;20458;-71
2022/01/30 15:02:42;;;;;;;7.50;1.40;;;;;;;;;;7392488;19;20013;-72
2022/01/30 15:05:08;;;;;;;14.23;2.88;;;;;;;;;;7391951;19;19998;-72
2022/01/30 15:07:34;;;;;;;4.53;1.23;;;;;;;;;;7391443;19;20017;-73
2022/01/30 15:10:00;;;;;;;4.68;1.13;;;;;;;;;;7387434;19;20006;-71
2022/01/30 15:12:25;;;;;;;8.70;1.17;;;;;;;;;;7391305;19;20010;-72
2022/01/30 15:14:52;;;;;;;5.68;1.08;;;;;;;;;;7388964;19;20204;-71
2022/01/30 15:20:43;;;;;;;7.43;1.20;;;;;;;;;;7389533;19;20760;-70
2022/01/30 15:23:08;;;;;;;6.57;1.05;;;;;;;;;;7390716;19;20002;-72
2022/01/30 15:25:34;;;;;;;5.80;1.25;;;;;;;;;;7388242;19;20039;-74
2022/01/30 15:28:00;;;;;;;6.40;1.20;;;;;;;;;;7387945;19;20006;-73
2022/01/30 15:30:25;;;;;;;6.13;1.23;;;;;;;;;;7386332;19;20006;-71
2022/01/30 15:32:50;;;;;;;11.13;1.77;;;;;;;;;;7386416;19;20007;-71
2022/01/30 15:35:17;;;;;;;5.13;1.48;;;;;;;;;;7390490;19;19998;-71
2022/01/30 15:37:42;;;;;;;6.88;1.40;;;;;;;;;;7386393;19;20003;-74